sensor_id;sensor_type;location;lat;lon;timestamp;P1;durP1;ratioP1;P2;durP2;ratioP2
44766;SDS011;30487;48.716;9.272;2023-02-23T00:00:24;20.88;;;11.10;;
44766;SDS011;30487;48.716;9.272;2023-02-23T00:02:52;24.95;;;11.68;;
44766;SDS011;30487;48.716;9.272;2023-02-23T00:05:23;26.08;;;11.77;;
44766;SDS011;30487;48.716;9.272;2023-02-23T00:07:50;22.55;;;10.32;;
44766;SDS011;30487;48.716;9.272;2023-02-23T00:10:16;23.38;;;11.60;;
44766;SDS011;30487;48.716;9.272;2023-02-23T00:12:44;22.98;;;11.80;;
44766;SDS011;30487;48.716;9.272;2023-02-23T00:15:09;21.42;;;11.43;;
44766;SDS011;30487;48.716;9.272;2023-02-23T00:17:35;25.27;;;11.27;;
44766;SDS011;30487;48.716;9.272;2023-02-23T00:20:02;23.42;;;11.60;;
44766;SDS011;30487;48.716;9.272;2023-02-23T00:22:33;22.65;;;12.13;;
44766;SDS011;30487;48.716;9.272;2023-02-23T00:24:59;21.25;;;11.60;;
44766;SDS011;30487;48.716;9.272;2023-02-23T00:27:25;21.25;;;11.68;;
44766;SDS011;30487;48.716;9.272;2023-02-23T00:29:51;24.25;;;11.45;;
44766;SDS011;30487;48.716;9.272;2023-02-23T00:32:17;22.20;;;11.35;;
44766;SDS011;30487;48.716;9.272;2023-02-23T00:34:45;21.73;;;11.02;;
44766;SDS011;30487;48.716;9.272;2023-02-23T00:37:15;23.40;;;11.55;;
44766;SDS011;30487;48.716;9.272;2023-02-23T00:39:42;25.48;;;12.25;;
44766;SDS011;30487;48.716;9.272;2023-02-23T00:42:07;24.20;;;11.70;;
44766;SDS011;30487;48.716;9.272;2023-02-23T00:44:34;27.30;;;12.10;;
44766;SDS011;30487;48.716;9.272;2023-02-23T00:47:04;21.98;;;11.38;;
44766;SDS011;30487;48.716;9.272;2023-02-23T00:49:31;26.20;;;12.48;;
44766;SDS011;30487;48.716;9.272;2023-02-23T00:51:57;24.10;;;11.60;;
44766;SDS011;30487;48.716;9.272;2023-02-23T00:54:23;25.52;;;11.68;;
44766;SDS011;30487;48.716;9.272;2023-02-23T00:56:49;28.08;;;12.50;;
44766;SDS011;30487;48.716;9.272;2023-02-23T00:59:15;23.27;;;12.05;;
44766;SDS011;30487;48.716;9.272;2023-02-23T01:01:42;23.08;;;11.40;;
44766;SDS011;30487;48.716;9.272;2023-02-23T01:04:08;22.35;;;12.50;;
44766;SDS011;30487;48.716;9.272;2023-02-23T01:06:37;25.48;;;11.73;;
44766;SDS011;30487;48.716;9.272;2023-02-23T01:09:11;23.70;;;12.80;;
44766;SDS011;30487;48.716;9.272;2023-02-23T01:11:40;24.27;;;12.10;;
44766;SDS011;30487;48.716;9.272;2023-02-23T01:14:06;26.95;;;12.52;;
44766;SDS011;30487;48.716;9.272;2023-02-23T01:16:32;27.30;;;12.20;;
44766;SDS011;30487;48.716;9.272;2023-02-23T01:19:00;22.17;;;11.60;;
44766;SDS011;30487;48.716;9.272;2023-02-23T01:21:32;21.20;;;11.02;;
44766;SDS011;30487;48.716;9.272;2023-02-23T01:23:59;23.70;;;12.27;;
44766;SDS011;30487;48.716;9.272;2023-02-23T01:26:30;26.65;;;12.93;;
44766;SDS011;30487;48.716;9.272;2023-02-23T01:28:59;29.75;;;12.13;;
44766;SDS011;30487;48.716;9.272;2023-02-23T01:31:37;21.77;;;12.07;;
44766;SDS011;30487;48.716;9.272;2023-02-23T01:34:04;26.20;;;12.60;;
44766;SDS011;30487;48.716;9.272;2023-02-23T01:36:35;25.50;;;12.45;;
44766;SDS011;30487;48.716;9.272;2023-02-23T01:39:03;24.20;;;12.65;;
44766;SDS011;30487;48.716;9.272;2023-02-23T01:41:32;24.63;;;11.80;;
44766;SDS011;30487;48.716;9.272;2023-02-23T01:46:30;25.00;;;12.90;;
44766;SDS011;30487;48.716;9.272;2023-02-23T01:48:57;24.85;;;12.68;;
44766;SDS011;30487;48.716;9.272;2023-02-23T01:51:24;22.65;;;12.95;;
44766;SDS011;30487;48.716;9.272;2023-02-23T01:53:57;28.08;;;12.30;;
44766;SDS011;30487;48.716;9.272;2023-02-23T01:56:29;23.83;;;13.48;;
44766;SDS011;30487;48.716;9.272;2023-02-23T01:58:58;24.67;;;12.90;;
44766;SDS011;30487;48.716;9.272;2023-02-23T02:01:29;26.02;;;13.43;;
44766;SDS011;30487;48.716;9.272;2023-02-23T02:03:57;26.15;;;12.90;;
44766;SDS011;30487;48.716;9.272;2023-02-23T02:06:29;23.88;;;13.00;;
44766;SDS011;30487;48.716;9.272;2023-02-23T02:09:01;24.85;;;12.57;;
44766;SDS011;30487;48.716;9.272;2023-02-23T02:11:42;24.65;;;12.65;;
44766;SDS011;30487;48.716;9.272;2023-02-23T02:14:17;24.88;;;12.88;;
44766;SDS011;30487;48.716;9.272;2023-02-23T02:28:07;23.90;;;12.25;;
44766;SDS011;30487;48.716;9.272;2023-02-23T02:39:14;24.90;;;12.40;;
44766;SDS011;30487;48.716;9.272;2023-02-23T02:44:47;24.58;;;12.60;;
44766;SDS011;30487;48.716;9.272;2023-02-23T02:48:01;25.27;;;12.55;;
44766;SDS011;30487;48.716;9.272;2023-02-23T02:53:12;24.95;;;12.50;;
44766;SDS011;30487;48.716;9.272;2023-02-23T02:55:41;25.85;;;12.80;;
44766;SDS011;30487;48.716;9.272;2023-02-23T02:58:12;22.45;;;12.60;;
44766;SDS011;30487;48.716;9.272;2023-02-23T03:06:20;23.90;;;12.43;;
44766;SDS011;30487;48.716;9.272;2023-02-23T03:21:47;28.45;;;12.38;;
44766;SDS011;30487;48.716;9.272;2023-02-23T03:24:40;22.10;;;12.35;;
44766;SDS011;30487;48.716;9.272;2023-02-23T03:30:22;23.90;;;12.23;;
44766;SDS011;30487;48.716;9.272;2023-02-23T03:33:16;23.38;;;11.32;;
44766;SDS011;30487;48.716;9.272;2023-02-23T03:36:12;18.98;;;11.45;;
44766;SDS011;30487;48.716;9.272;2023-02-23T03:39:14;22.77;;;12.38;;
44766;SDS011;30487;48.716;9.272;2023-02-23T03:42:12;22.63;;;12.75;;
44766;SDS011;30487;48.716;9.272;2023-02-23T03:45:05;22.98;;;12.20;;
44766;SDS011;30487;48.716;9.272;2023-02-23T03:47:52;23.17;;;11.77;;
44766;SDS011;30487;48.716;9.272;2023-02-23T03:50:44;25.17;;;12.13;;
44766;SDS011;30487;48.716;9.272;2023-02-23T03:54:19;22.80;;;11.88;;
44766;SDS011;30487;48.716;9.272;2023-02-23T03:56:51;23.45;;;11.70;;
44766;SDS011;30487;48.716;9.272;2023-02-23T03:59:46;20.80;;;11.93;;
44766;SDS011;30487;48.716;9.272;2023-02-23T04:02:35;23.80;;;11.77;;
44766;SDS011;30487;48.716;9.272;2023-02-23T04:05:19;22.33;;;11.80;;
44766;SDS011;30487;48.716;9.272;2023-02-23T04:08:06;22.67;;;11.93;;
44766;SDS011;30487;48.716;9.272;2023-02-23T04:10:57;20.92;;;11.50;;
44766;SDS011;30487;48.716;9.272;2023-02-23T04:13:48;24.50;;;12.55;;
44766;SDS011;30487;48.716;9.272;2023-02-23T04:16:22;23.58;;;11.95;;
44766;SDS011;30487;48.716;9.272;2023-02-23T04:18:47;26.85;;;12.52;;
44766;SDS011;30487;48.716;9.272;2023-02-23T04:21:13;24.67;;;12.73;;
44766;SDS011;30487;48.716;9.272;2023-02-23T04:23:38;23.20;;;11.75;;
44766;SDS011;30487;48.716;9.272;2023-02-23T04:26:06;24.40;;;12.35;;
44766;SDS011;30487;48.716;9.272;2023-02-23T04:28:32;21.52;;;11.90;;
44766;SDS011;30487;48.716;9.272;2023-02-23T04:30:57;21.38;;;12.60;;
44766;SDS011;30487;48.716;9.272;2023-02-23T04:33:24;22.35;;;12.32;;
44766;SDS011;30487;48.716;9.272;2023-02-23T04:35:52;25.25;;;12.90;;
44766;SDS011;30487;48.716;9.272;2023-02-23T04:38:18;22.88;;;12.77;;
44766;SDS011;30487;48.716;9.272;2023-02-23T04:40:44;23.95;;;12.65;;
44766;SDS011;30487;48.716;9.272;2023-02-23T04:43:13;24.65;;;12.70;;
44766;SDS011;30487;48.716;9.272;2023-02-23T04:45:39;24.92;;;12.27;;
44766;SDS011;30487;48.716;9.272;2023-02-23T04:48:05;25.65;;;12.60;;
44766;SDS011;30487;48.716;9.272;2023-02-23T04:50:31;23.75;;;12.40;;
44766;SDS011;30487;48.716;9.272;2023-02-23T04:52:57;24.25;;;12.70;;
44766;SDS011;30487;48.716;9.272;2023-02-23T04:55:23;25.63;;;13.48;;
44766;SDS011;30487;48.716;9.272;2023-02-23T04:57:50;25.75;;;13.50;;
44766;SDS011;30487;48.716;9.272;2023-02-23T05:00:20;21.67;;;12.43;;
44766;SDS011;30487;48.716;9.272;2023-02-23T05:02:46;25.20;;;13.25;;
44766;SDS011;30487;48.716;9.272;2023-02-23T05:05:11;24.30;;;12.57;;
44766;SDS011;30487;48.716;9.272;2023-02-23T05:07:37;26.23;;;12.82;;
44766;SDS011;30487;48.716;9.272;2023-02-23T05:10:03;26.33;;;12.68;;
44766;SDS011;30487;48.716;9.272;2023-02-23T05:12:30;22.23;;;12.40;;
44766;SDS011;30487;48.716;9.272;2023-02-23T05:14:56;24.95;;;12.88;;
44766;SDS011;30487;48.716;9.272;2023-02-23T05:17:21;24.98;;;12.88;;
44766;SDS011;30487;48.716;9.272;2023-02-23T05:19:47;25.67;;;12.38;;
44766;SDS011;30487;48.716;9.272;2023-02-23T05:22:13;34.42;;;12.73;;
44766;SDS011;30487;48.716;9.272;2023-02-23T05:24:39;25.55;;;12.85;;
44766;SDS011;30487;48.716;9.272;2023-02-23T05:27:06;27.98;;;13.13;;
44766;SDS011;30487;48.716;9.272;2023-02-23T05:29:32;24.67;;;12.52;;
44766;SDS011;30487;48.716;9.272;2023-02-23T05:31:58;24.45;;;12.25;;
44766;SDS011;30487;48.716;9.272;2023-02-23T05:34:23;24.92;;;13.15;;
44766;SDS011;30487;48.716;9.272;2023-02-23T05:36:49;27.08;;;12.60;;
44766;SDS011;30487;48.716;9.272;2023-02-23T05:39:15;26.50;;;12.20;;
44766;SDS011;30487;48.716;9.272;2023-02-23T05:41:40;21.70;;;12.02;;
44766;SDS011;30487;48.716;9.272;2023-02-23T05:44:06;26.02;;;13.02;;
44766;SDS011;30487;48.716;9.272;2023-02-23T05:46:31;22.75;;;12.52;;
44766;SDS011;30487;48.716;9.272;2023-02-23T05:48:58;22.90;;;12.82;;
44766;SDS011;30487;48.716;9.272;2023-02-23T05:51:25;24.73;;;12.70;;
44766;SDS011;30487;48.716;9.272;2023-02-23T05:53:51;21.65;;;12.38;;
44766;SDS011;30487;48.716;9.272;2023-02-23T05:56:17;22.98;;;12.55;;
44766;SDS011;30487;48.716;9.272;2023-02-23T05:58:46;24.88;;;12.07;;
44766;SDS011;30487;48.716;9.272;2023-02-23T06:01:13;21.48;;;11.60;;
44766;SDS011;30487;48.716;9.272;2023-02-23T06:03:39;24.00;;;12.52;;
44766;SDS011;30487;48.716;9.272;2023-02-23T06:06:05;26.50;;;12.80;;
44766;SDS011;30487;48.716;9.272;2023-02-23T06:08:31;27.08;;;12.60;;
44766;SDS011;30487;48.716;9.272;2023-02-23T06:10:57;23.73;;;12.52;;
44766;SDS011;30487;48.716;9.272;2023-02-23T06:13:22;23.92;;;11.98;;
44766;SDS011;30487;48.716;9.272;2023-02-23T06:15:48;23.83;;;11.98;;
44766;SDS011;30487;48.716;9.272;2023-02-23T06:18:13;25.02;;;12.48;;
44766;SDS011;30487;48.716;9.272;2023-02-23T06:20:41;20.58;;;11.70;;
44766;SDS011;30487;48.716;9.272;2023-02-23T06:23:06;24.80;;;11.82;;
44766;SDS011;30487;48.716;9.272;2023-02-23T06:25:32;30.02;;;12.95;;
44766;SDS011;30487;48.716;9.272;2023-02-23T06:27:57;23.65;;;12.02;;
44766;SDS011;30487;48.716;9.272;2023-02-23T06:30:23;26.10;;;12.18;;
44766;SDS011;30487;48.716;9.272;2023-02-23T06:32:48;26.30;;;12.65;;
44766;SDS011;30487;48.716;9.272;2023-02-23T06:35:14;26.45;;;12.65;;
44766;SDS011;30487;48.716;9.272;2023-02-23T06:37:40;23.58;;;12.30;;
44766;SDS011;30487;48.716;9.272;2023-02-23T06:40:06;24.77;;;12.73;;
44766;SDS011;30487;48.716;9.272;2023-02-23T06:42:31;25.15;;;11.95;;
44766;SDS011;30487;48.716;9.272;2023-02-23T06:45:00;26.50;;;12.15;;
44766;SDS011;30487;48.716;9.272;2023-02-23T06:47:26;29.90;;;12.63;;
44766;SDS011;30487;48.716;9.272;2023-02-23T06:49:51;24.60;;;12.60;;
44766;SDS011;30487;48.716;9.272;2023-02-23T06:52:17;23.55;;;12.23;;
44766;SDS011;30487;48.716;9.272;2023-02-23T06:54:42;23.85;;;12.43;;
44766;SDS011;30487;48.716;9.272;2023-02-23T06:57:08;23.05;;;12.80;;
44766;SDS011;30487;48.716;9.272;2023-02-23T06:59:35;25.63;;;13.18;;
44766;SDS011;30487;48.716;9.272;2023-02-23T07:02:01;26.15;;;12.60;;
44766;SDS011;30487;48.716;9.272;2023-02-23T07:04:29;24.83;;;12.60;;
44766;SDS011;30487;48.716;9.272;2023-02-23T07:06:55;25.98;;;13.52;;
44766;SDS011;30487;48.716;9.272;2023-02-23T07:09:21;28.20;;;15.52;;
44766;SDS011;30487;48.716;9.272;2023-02-23T07:11:46;28.05;;;13.75;;
44766;SDS011;30487;48.716;9.272;2023-02-23T07:14:12;28.38;;;14.52;;
44766;SDS011;30487;48.716;9.272;2023-02-23T07:16:38;25.73;;;13.35;;
44766;SDS011;30487;48.716;9.272;2023-02-23T07:19:04;30.48;;;13.48;;
44766;SDS011;30487;48.716;9.272;2023-02-23T07:21:30;26.50;;;13.35;;
44766;SDS011;30487;48.716;9.272;2023-02-23T07:23:57;31.67;;;14.82;;
44766;SDS011;30487;48.716;9.272;2023-02-23T07:26:24;27.58;;;13.82;;
44766;SDS011;30487;48.716;9.272;2023-02-23T07:28:49;28.83;;;13.38;;
44766;SDS011;30487;48.716;9.272;2023-02-23T07:31:15;28.30;;;14.07;;
44766;SDS011;30487;48.716;9.272;2023-02-23T07:33:41;24.33;;;12.85;;
44766;SDS011;30487;48.716;9.272;2023-02-23T07:36:07;28.50;;;13.85;;
44766;SDS011;30487;48.716;9.272;2023-02-23T07:38:33;26.67;;;14.00;;
44766;SDS011;30487;48.716;9.272;2023-02-23T07:40:59;28.80;;;13.75;;
44766;SDS011;30487;48.716;9.272;2023-02-23T07:43:24;25.10;;;12.90;;
44766;SDS011;30487;48.716;9.272;2023-02-23T07:45:50;25.15;;;13.15;;
44766;SDS011;30487;48.716;9.272;2023-02-23T07:48:16;30.40;;;15.07;;
44766;SDS011;30487;48.716;9.272;2023-02-23T07:50:42;24.23;;;13.77;;
44766;SDS011;30487;48.716;9.272;2023-02-23T07:53:08;24.98;;;14.02;;
44766;SDS011;30487;48.716;9.272;2023-02-23T07:55:35;30.70;;;13.13;;
44766;SDS011;30487;48.716;9.272;2023-02-23T07:58:02;24.27;;;13.18;;
44766;SDS011;30487;48.716;9.272;2023-02-23T08:00:28;28.33;;;13.48;;
44766;SDS011;30487;48.716;9.272;2023-02-23T08:02:54;25.65;;;12.93;;
44766;SDS011;30487;48.716;9.272;2023-02-23T08:05:20;23.98;;;12.65;;
44766;SDS011;30487;48.716;9.272;2023-02-23T08:07:45;23.40;;;12.23;;
44766;SDS011;30487;48.716;9.272;2023-02-23T08:10:11;23.17;;;11.65;;
44766;SDS011;30487;48.716;9.272;2023-02-23T08:12:37;26.45;;;12.18;;
44766;SDS011;30487;48.716;9.272;2023-02-23T08:15:03;26.10;;;11.52;;
44766;SDS011;30487;48.716;9.272;2023-02-23T08:17:32;22.80;;;11.40;;
44766;SDS011;30487;48.716;9.272;2023-02-23T08:19:58;22.25;;;11.43;;
44766;SDS011;30487;48.716;9.272;2023-02-23T08:22:24;24.50;;;10.93;;
44766;SDS011;30487;48.716;9.272;2023-02-23T08:24:50;22.15;;;11.43;;
44766;SDS011;30487;48.716;9.272;2023-02-23T08:27:15;21.27;;;11.68;;
44766;SDS011;30487;48.716;9.272;2023-02-23T08:29:41;23.92;;;10.73;;
44766;SDS011;30487;48.716;9.272;2023-02-23T08:32:06;25.45;;;11.85;;
44766;SDS011;30487;48.716;9.272;2023-02-23T08:34:36;23.38;;;11.48;;
44766;SDS011;30487;48.716;9.272;2023-02-23T08:37:05;26.43;;;11.33;;
44766;SDS011;30487;48.716;9.272;2023-02-23T08:39:31;21.15;;;11.30;;
44766;SDS011;30487;48.716;9.272;2023-02-23T08:41:57;22.83;;;11.38;;
44766;SDS011;30487;48.716;9.272;2023-02-23T08:44:22;19.35;;;10.57;;
44766;SDS011;30487;48.716;9.272;2023-02-23T08:46:48;24.33;;;11.60;;
44766;SDS011;30487;48.716;9.272;2023-02-23T08:49:14;22.10;;;12.38;;
44766;SDS011;30487;48.716;9.272;2023-02-23T08:51:39;26.52;;;12.05;;
44766;SDS011;30487;48.716;9.272;2023-02-23T08:54:05;21.52;;;11.90;;
44766;SDS011;30487;48.716;9.272;2023-02-23T08:56:36;21.30;;;11.18;;
44766;SDS011;30487;48.716;9.272;2023-02-23T08:59:02;24.45;;;10.70;;
44766;SDS011;30487;48.716;9.272;2023-02-23T09:01:28;24.35;;;10.82;;
44766;SDS011;30487;48.716;9.272;2023-02-23T09:03:54;21.60;;;11.68;;
44766;SDS011;30487;48.716;9.272;2023-02-23T09:06:21;24.27;;;11.45;;
44766;SDS011;30487;48.716;9.272;2023-02-23T09:08:49;23.10;;;10.82;;
44766;SDS011;30487;48.716;9.272;2023-02-23T09:11:15;20.23;;;10.88;;
44766;SDS011;30487;48.716;9.272;2023-02-23T09:13:41;17.65;;;9.43;;
44766;SDS011;30487;48.716;9.272;2023-02-23T09:16:06;19.45;;;9.55;;
44766;SDS011;30487;48.716;9.272;2023-02-23T09:18:32;22.67;;;10.13;;
44766;SDS011;30487;48.716;9.272;2023-02-23T09:21:01;17.63;;;9.43;;
44766;SDS011;30487;48.716;9.272;2023-02-23T09:23:31;18.50;;;10.07;;
44766;SDS011;30487;48.716;9.272;2023-02-23T09:26:01;18.55;;;9.60;;
44766;SDS011;30487;48.716;9.272;2023-02-23T09:28:27;18.08;;;8.88;;
44766;SDS011;30487;48.716;9.272;2023-02-23T09:30:54;15.25;;;8.90;;
44766;SDS011;30487;48.716;9.272;2023-02-23T09:33:20;19.77;;;9.55;;
44766;SDS011;30487;48.716;9.272;2023-02-23T09:35:46;20.23;;;9.77;;
44766;SDS011;30487;48.716;9.272;2023-02-23T09:38:12;18.90;;;9.20;;
44766;SDS011;30487;48.716;9.272;2023-02-23T09:40:51;15.68;;;8.57;;
44766;SDS011;30487;48.716;9.272;2023-02-23T09:48:25;18.40;;;7.93;;
44766;SDS011;30487;48.716;9.272;2023-02-23T09:50:54;16.30;;;8.40;;
44766;SDS011;30487;48.716;9.272;2023-02-23T09:55:59;16.13;;;8.18;;
44766;SDS011;30487;48.716;9.272;2023-02-23T09:58:28;15.98;;;8.15;;
44766;SDS011;30487;48.716;9.272;2023-02-23T10:03:58;15.38;;;6.68;;
44766;SDS011;30487;48.716;9.272;2023-02-23T10:06:27;15.38;;;7.63;;
44766;SDS011;30487;48.716;9.272;2023-02-23T10:08:55;13.13;;;7.10;;
44766;SDS011;30487;48.716;9.272;2023-02-23T10:16:49;13.63;;;7.22;;
44766;SDS011;30487;48.716;9.272;2023-02-23T10:19:29;13.05;;;7.18;;
44766;SDS011;30487;48.716;9.272;2023-02-23T10:22:04;13.43;;;6.45;;
44766;SDS011;30487;48.716;9.272;2023-02-23T10:24:36;16.13;;;6.93;;
44766;SDS011;30487;48.716;9.272;2023-02-23T10:27:11;13.55;;;6.45;;
44766;SDS011;30487;48.716;9.272;2023-02-23T10:29:41;14.07;;;6.53;;
44766;SDS011;30487;48.716;9.272;2023-02-23T10:34:54;11.52;;;6.50;;
44766;SDS011;30487;48.716;9.272;2023-02-23T10:37:20;14.65;;;6.82;;
44766;SDS011;30487;48.716;9.272;2023-02-23T10:39:47;13.23;;;6.20;;
44766;SDS011;30487;48.716;9.272;2023-02-23T10:42:19;13.88;;;6.22;;
44766;SDS011;30487;48.716;9.272;2023-02-23T10:44:48;12.43;;;6.38;;
44766;SDS011;30487;48.716;9.272;2023-02-23T10:47:18;11.60;;;6.00;;
44766;SDS011;30487;48.716;9.272;2023-02-23T10:49:50;14.00;;;5.75;;
44766;SDS011;30487;48.716;9.272;2023-02-23T10:52:26;12.38;;;5.70;;
44766;SDS011;30487;48.716;9.272;2023-02-23T10:55:21;15.57;;;5.85;;
44766;SDS011;30487;48.716;9.272;2023-02-23T10:58:07;13.05;;;5.05;;
44766;SDS011;30487;48.716;9.272;2023-02-23T11:08:55;9.93;;;3.95;;
44766;SDS011;30487;48.716;9.272;2023-02-23T11:11:25;13.25;;;4.18;;
44766;SDS011;30487;48.716;9.272;2023-02-23T11:13:53;8.73;;;3.55;;
44766;SDS011;30487;48.716;9.272;2023-02-23T11:16:22;7.30;;;3.50;;
44766;SDS011;30487;48.716;9.272;2023-02-23T11:19:01;9.00;;;3.88;;
44766;SDS011;30487;48.716;9.272;2023-02-23T11:21:32;12.50;;;3.55;;
44766;SDS011;30487;48.716;9.272;2023-02-23T11:24:15;10.68;;;3.97;;
44766;SDS011;30487;48.716;9.272;2023-02-23T11:26:43;6.75;;;3.38;;
44766;SDS011;30487;48.716;9.272;2023-02-23T11:29:13;6.53;;;3.42;;
44766;SDS011;30487;48.716;9.272;2023-02-23T11:32:05;10.68;;;3.58;;
44766;SDS011;30487;48.716;9.272;2023-02-23T11:34:34;8.25;;;3.30;;
44766;SDS011;30487;48.716;9.272;2023-02-23T11:39:53;8.85;;;2.33;;
44766;SDS011;30487;48.716;9.272;2023-02-23T11:42:22;8.73;;;3.22;;
44766;SDS011;30487;48.716;9.272;2023-02-23T11:45:36;6.85;;;2.83;;
44766;SDS011;30487;48.716;9.272;2023-02-23T11:47:43;6.63;;;2.67;;
44766;SDS011;30487;48.716;9.272;2023-02-23T11:53:04;7.65;;;2.72;;
44766;SDS011;30487;48.716;9.272;2023-02-23T11:55:37;7.25;;;2.53;;
44766;SDS011;30487;48.716;9.272;2023-02-23T11:58:09;6.50;;;2.33;;
44766;SDS011;30487;48.716;9.272;2023-02-23T12:00:56;5.90;;;2.50;;
44766;SDS011;30487;48.716;9.272;2023-02-23T12:03:24;6.00;;;2.40;;
44766;SDS011;30487;48.716;9.272;2023-02-23T12:05:52;6.70;;;2.53;;
44766;SDS011;30487;48.716;9.272;2023-02-23T12:10:59;6.13;;;2.30;;
44766;SDS011;30487;48.716;9.272;2023-02-23T12:13:30;4.93;;;2.33;;
44766;SDS011;30487;48.716;9.272;2023-02-23T12:20:57;7.57;;;2.25;;
44766;SDS011;30487;48.716;9.272;2023-02-23T12:23:39;5.38;;;1.60;;
44766;SDS011;30487;48.716;9.272;2023-02-23T12:26:11;13.77;;;2.20;;
44766;SDS011;30487;48.716;9.272;2023-02-23T12:34:16;6.43;;;2.38;;
44766;SDS011;30487;48.716;9.272;2023-02-23T12:36:56;7.75;;;2.15;;
44766;SDS011;30487;48.716;9.272;2023-02-23T12:39:32;9.57;;;2.58;;
44766;SDS011;30487;48.716;9.272;2023-02-23T12:43:04;8.38;;;2.60;;
44766;SDS011;30487;48.716;9.272;2023-02-23T12:45:20;8.13;;;2.90;;
44766;SDS011;30487;48.716;9.272;2023-02-23T12:48:01;9.27;;;3.13;;
44766;SDS011;30487;48.716;9.272;2023-02-23T12:50:52;12.63;;;3.60;;
44766;SDS011;30487;48.716;9.272;2023-02-23T12:53:24;11.07;;;3.30;;
44766;SDS011;30487;48.716;9.272;2023-02-23T13:01:15;9.10;;;3.05;;
44766;SDS011;30487;48.716;9.272;2023-02-23T13:14:49;9.45;;;2.70;;
44766;SDS011;30487;48.716;9.272;2023-02-23T13:25:40;6.20;;;2.70;;
44766;SDS011;30487;48.716;9.272;2023-02-23T13:31:33;7.22;;;3.13;;
44766;SDS011;30487;48.716;9.272;2023-02-23T13:34:01;7.68;;;3.10;;
44766;SDS011;30487;48.716;9.272;2023-02-23T13:36:29;8.32;;;3.42;;
44766;SDS011;30487;48.716;9.272;2023-02-23T13:39:04;9.43;;;3.20;;
44766;SDS011;30487;48.716;9.272;2023-02-23T13:44:47;10.23;;;3.30;;
44766;SDS011;30487;48.716;9.272;2023-02-23T13:52:45;9.60;;;3.10;;
44766;SDS011;30487;48.716;9.272;2023-02-23T13:57:53;8.60;;;3.33;;
44766;SDS011;30487;48.716;9.272;2023-02-23T14:00:27;9.77;;;3.40;;
44766;SDS011;30487;48.716;9.272;2023-02-23T14:02:53;6.95;;;2.70;;
44766;SDS011;30487;48.716;9.272;2023-02-23T14:05:26;8.48;;;2.72;;
44766;SDS011;30487;48.716;9.272;2023-02-23T14:08:02;7.82;;;3.00;;
44766;SDS011;30487;48.716;9.272;2023-02-23T14:10:36;8.93;;;3.00;;
44766;SDS011;30487;48.716;9.272;2023-02-23T14:15:45;8.50;;;2.90;;
44766;SDS011;30487;48.716;9.272;2023-02-23T14:20:55;10.13;;;3.13;;
44766;SDS011;30487;48.716;9.272;2023-02-23T14:26:42;8.23;;;3.20;;
44766;SDS011;30487;48.716;9.272;2023-02-23T14:29:10;6.55;;;3.22;;
44766;SDS011;30487;48.716;9.272;2023-02-23T14:31:58;7.70;;;3.20;;
44766;SDS011;30487;48.716;9.272;2023-02-23T14:37:16;10.18;;;3.50;;
44766;SDS011;30487;48.716;9.272;2023-02-23T14:40:08;9.60;;;3.88;;
44766;SDS011;30487;48.716;9.272;2023-02-23T14:42:39;10.13;;;3.70;;
44766;SDS011;30487;48.716;9.272;2023-02-23T14:45:19;15.98;;;3.80;;
44766;SDS011;30487;48.716;9.272;2023-02-23T14:47:54;15.35;;;4.35;;
44766;SDS011;30487;48.716;9.272;2023-02-23T14:50:28;12.20;;;4.57;;
44766;SDS011;30487;48.716;9.272;2023-02-23T14:52:59;11.50;;;3.88;;
44766;SDS011;30487;48.716;9.272;2023-02-23T14:55:27;11.15;;;4.13;;
44766;SDS011;30487;48.716;9.272;2023-02-23T14:57:54;10.25;;;4.03;;
44766;SDS011;30487;48.716;9.272;2023-02-23T15:02:57;10.32;;;4.57;;
44766;SDS011;30487;48.716;9.272;2023-02-23T15:05:29;11.50;;;4.38;;
44766;SDS011;30487;48.716;9.272;2023-02-23T15:07:58;10.52;;;4.30;;
44766;SDS011;30487;48.716;9.272;2023-02-23T15:10:28;8.25;;;4.20;;
44766;SDS011;30487;48.716;9.272;2023-02-23T15:13:08;8.95;;;4.05;;
44766;SDS011;30487;48.716;9.272;2023-02-23T15:15:36;10.38;;;4.50;;
44766;SDS011;30487;48.716;9.272;2023-02-23T15:18:09;13.38;;;4.35;;
44766;SDS011;30487;48.716;9.272;2023-02-23T15:20:50;6.43;;;3.65;;
44766;SDS011;30487;48.716;9.272;2023-02-23T15:23:16;10.38;;;3.47;;
44766;SDS011;30487;48.716;9.272;2023-02-23T15:25:43;10.18;;;3.78;;
44766;SDS011;30487;48.716;9.272;2023-02-23T15:28:28;8.90;;;3.80;;
44766;SDS011;30487;48.716;9.272;2023-02-23T15:30:57;8.67;;;3.67;;
44766;SDS011;30487;48.716;9.272;2023-02-23T15:33:25;9.10;;;3.50;;
44766;SDS011;30487;48.716;9.272;2023-02-23T15:35:56;11.13;;;3.95;;
44766;SDS011;30487;48.716;9.272;2023-02-23T15:38:27;12.85;;;3.80;;
44766;SDS011;30487;48.716;9.272;2023-02-23T15:40:58;13.13;;;4.05;;
44766;SDS011;30487;48.716;9.272;2023-02-23T15:43:26;13.43;;;3.58;;
44766;SDS011;30487;48.716;9.272;2023-02-23T15:45:54;13.00;;;4.13;;
44766;SDS011;30487;48.716;9.272;2023-02-23T15:48:23;9.40;;;3.70;;
44766;SDS011;30487;48.716;9.272;2023-02-23T15:50:55;9.25;;;3.75;;
44766;SDS011;30487;48.716;9.272;2023-02-23T15:55:52;8.23;;;2.88;;
44766;SDS011;30487;48.716;9.272;2023-02-23T15:58:28;7.40;;;2.80;;
44766;SDS011;30487;48.716;9.272;2023-02-23T16:00:56;7.78;;;2.83;;
44766;SDS011;30487;48.716;9.272;2023-02-23T16:03:33;7.00;;;2.53;;
44766;SDS011;30487;48.716;9.272;2023-02-23T16:06:02;7.35;;;2.58;;
44766;SDS011;30487;48.716;9.272;2023-02-23T16:08:32;8.25;;;2.67;;
44766;SDS011;30487;48.716;9.272;2023-02-23T16:11:03;7.90;;;2.50;;
44766;SDS011;30487;48.716;9.272;2023-02-23T16:13:36;7.93;;;2.45;;
44766;SDS011;30487;48.716;9.272;2023-02-23T16:16:06;7.53;;;2.15;;
44766;SDS011;30487;48.716;9.272;2023-02-23T16:18:39;9.95;;;2.80;;
44766;SDS011;30487;48.716;9.272;2023-02-23T16:21:06;10.65;;;2.75;;
44766;SDS011;30487;48.716;9.272;2023-02-23T16:23:41;4.88;;;2.30;;
44766;SDS011;30487;48.716;9.272;2023-02-23T16:26:10;7.50;;;2.75;;
44766;SDS011;30487;48.716;9.272;2023-02-23T16:28:40;6.72;;;2.50;;
44766;SDS011;30487;48.716;9.272;2023-02-23T16:31:09;9.60;;;3.25;;
44766;SDS011;30487;48.716;9.272;2023-02-23T16:33:44;6.25;;;2.85;;
44766;SDS011;30487;48.716;9.272;2023-02-23T16:36:18;10.98;;;3.33;;
44766;SDS011;30487;48.716;9.272;2023-02-23T16:41:23;14.27;;;3.30;;
44766;SDS011;30487;48.716;9.272;2023-02-23T16:43:50;10.23;;;3.55;;
44766;SDS011;30487;48.716;9.272;2023-02-23T16:46:19;8.57;;;3.47;;
44766;SDS011;30487;48.716;9.272;2023-02-23T16:48:47;9.90;;;3.80;;
44766;SDS011;30487;48.716;9.272;2023-02-23T16:51:13;13.73;;;3.63;;
44766;SDS011;30487;48.716;9.272;2023-02-23T16:53:41;8.35;;;3.72;;
44766;SDS011;30487;48.716;9.272;2023-02-23T16:56:09;9.82;;;3.05;;
44766;SDS011;30487;48.716;9.272;2023-02-23T16:58:39;10.77;;;4.03;;
44766;SDS011;30487;48.716;9.272;2023-02-23T17:01:09;9.10;;;4.10;;
44766;SDS011;30487;48.716;9.272;2023-02-23T17:03:38;9.05;;;3.85;;
44766;SDS011;30487;48.716;9.272;2023-02-23T17:06:04;9.18;;;4.07;;
44766;SDS011;30487;48.716;9.272;2023-02-23T17:08:30;11.60;;;3.95;;
44766;SDS011;30487;48.716;9.272;2023-02-23T17:10:58;10.38;;;3.97;;
44766;SDS011;30487;48.716;9.272;2023-02-23T17:13:26;8.85;;;3.90;;
44766;SDS011;30487;48.716;9.272;2023-02-23T17:15:56;15.07;;;4.32;;
44766;SDS011;30487;48.716;9.272;2023-02-23T17:18:23;9.63;;;3.85;;
44766;SDS011;30487;48.716;9.272;2023-02-23T17:20:57;7.80;;;3.58;;
44766;SDS011;30487;48.716;9.272;2023-02-23T17:23:25;8.13;;;3.67;;